createdAt,value
2018-05-24T00:00:17.449Z,7.47
2018-05-24T00:02:49.209Z,7.37
2018-05-24T00:05:19.183Z,6.00
2018-05-24T00:07:51.016Z,5.65
2018-05-24T00:10:21.853Z,7.65
2018-05-24T00:12:52.259Z,5.00
2018-05-24T00:15:22.994Z,5.62
2018-05-24T00:17:52.922Z,6.45
2018-05-24T00:20:25.213Z,8.70
2018-05-24T00:22:56.148Z,4.82
2018-05-24T00:25:25.949Z,4.80
2018-05-24T00:27:58.298Z,4.95
2018-05-24T00:30:29.707Z,4.85
2018-05-24T00:32:59.757Z,6.95
2018-05-24T00:35:29.771Z,5.00
2018-05-24T00:38:01.653Z,5.40
2018-05-24T00:40:32.201Z,5.85
2018-05-24T00:43:04.407Z,5.12
2018-05-24T00:45:35.838Z,6.18
2018-05-24T00:48:07.274Z,4.50
2018-05-24T00:50:37.406Z,5.32
2018-05-24T00:53:08.174Z,6.05
2018-05-24T00:55:45.787Z,5.07
2018-05-24T00:58:17.164Z,5.37
2018-05-24T01:00:47.711Z,6.18
2018-05-24T01:03:17.720Z,4.60
2018-05-24T01:05:49.268Z,5.95
2018-05-24T01:08:20.624Z,4.70
2018-05-24T01:10:51.074Z,4.80
2018-05-24T01:13:23.652Z,7.90
2018-05-24T01:15:53.633Z,5.87
2018-05-24T01:18:23.885Z,6.43
2018-05-24T01:20:55.322Z,4.95
2018-05-24T01:23:27.582Z,4.30
2018-05-24T01:25:59.001Z,11.45
2018-05-24T01:28:28.972Z,5.72
2018-05-24T01:30:59.417Z,6.55
2018-05-24T01:33:29.664Z,5.10
2018-05-24T01:36:01.224Z,5.00
2018-05-24T01:38:31.048Z,5.03
2018-05-24T01:41:02.848Z,6.18
2018-05-24T01:43:34.482Z,4.03
2018-05-24T01:46:05.720Z,4.05
2018-05-24T01:48:35.690Z,3.75
2018-05-24T01:51:05.633Z,8.30
2018-05-24T01:53:35.530Z,5.20
2018-05-24T01:56:06.128Z,4.82
2018-05-24T01:58:37.965Z,4.47
2018-05-24T02:01:09.795Z,3.85
2018-05-24T02:03:40.273Z,3.78
2018-05-24T02:06:12.192Z,4.68
2018-05-24T02:08:42.228Z,4.40
2018-05-24T02:11:13.686Z,4.57
2018-05-24T02:13:45.441Z,4.18
2018-05-24T02:16:17.078Z,6.55
2018-05-24T02:18:48.812Z,7.57
2018-05-24T02:21:20.374Z,5.57
2018-05-24T02:23:50.282Z,3.92
2018-05-24T02:26:21.970Z,5.62
2018-05-24T02:28:51.843Z,6.00
2018-05-24T02:31:23.833Z,4.20
2018-05-24T02:33:55.871Z,6.97
2018-05-24T02:36:25.044Z,4.57
2018-05-24T02:38:56.771Z,3.78
2018-05-24T02:41:26.386Z,4.50
2018-05-24T02:43:58.507Z,4.32
2018-05-24T02:46:29.039Z,4.78
2018-05-24T02:49:00.960Z,3.65
2018-05-24T02:51:32.628Z,5.25
2018-05-24T02:54:03.823Z,6.28
2018-05-24T02:56:33.730Z,3.85
2018-05-24T02:59:05.665Z,5.15
2018-05-24T03:01:39.139Z,5.78
2018-05-24T03:04:11.219Z,5.07
2018-05-24T03:06:42.227Z,6.78
2018-05-24T03:09:14.468Z,4.30
2018-05-24T03:11:45.871Z,4.50
2018-05-24T03:14:15.819Z,4.15
2018-05-24T03:16:47.189Z,4.15
2018-05-24T03:19:19.210Z,4.25
2018-05-24T03:21:50.545Z,6.30
2018-05-24T03:24:20.504Z,7.53
2018-05-24T03:26:51.159Z,4.72
2018-05-24T03:29:22.731Z,5.28
2018-05-24T03:31:52.780Z,4.12
2018-05-24T03:34:23.665Z,4.32
2018-05-24T03:36:55.055Z,5.15
2018-05-24T03:39:26.900Z,8.07
2018-05-24T03:41:58.406Z,4.68
2018-05-24T03:44:29.239Z,4.05
2018-05-24T03:47:00.900Z,3.55
2018-05-24T03:49:30.745Z,3.95
2018-05-24T03:52:00.766Z,6.00
2018-05-24T03:54:30.584Z,3.70
2018-05-24T03:57:01.933Z,4.43
2018-05-24T03:59:58.521Z,3.85
2018-05-24T04:03:05.786Z,5.40
2018-05-24T04:05:37.094Z,4.50
2018-05-24T04:08:07.148Z,10.73
2018-05-24T04:10:38.856Z,6.72
2018-05-24T04:13:09.943Z,3.80
2018-05-24T04:15:41.413Z,5.47
2018-05-24T04:18:11.348Z,5.07
2018-05-24T04:20:42.662Z,6.97
2018-05-24T04:23:12.649Z,4.12
2018-05-24T04:25:42.469Z,5.05
2018-05-24T04:28:12.973Z,7.30
2018-05-24T04:30:43.156Z,3.55
2018-05-24T04:33:13.074Z,3.75
2018-05-24T04:35:44.825Z,3.65
2018-05-24T04:38:15.196Z,4.80
2018-05-24T04:40:46.608Z,4.68
2018-05-24T04:43:16.530Z,4.55
2018-05-24T04:45:47.808Z,5.55
2018-05-24T04:48:17.851Z,6.22
2018-05-24T04:50:49.535Z,3.83
2018-05-24T04:53:20.028Z,4.95
2018-05-24T04:55:49.226Z,4.57
2018-05-24T04:58:20.729Z,3.85
2018-05-24T05:00:52.108Z,6.05
2018-05-24T05:03:23.556Z,3.67
2018-05-24T05:05:53.465Z,4.75
2018-05-24T05:08:24.518Z,6.32
2018-05-24T05:10:54.489Z,4.78
2018-05-24T05:13:25.090Z,4.90
2018-05-24T05:15:56.593Z,3.65
2018-05-24T05:18:26.456Z,5.87
2018-05-24T05:20:56.902Z,5.25
2018-05-24T05:23:27.570Z,6.05
2018-05-24T05:25:58.626Z,5.62
2018-05-24T05:28:29.786Z,4.07
2018-05-24T05:31:00.780Z,4.00
2018-05-24T05:33:31.571Z,6.75
2018-05-24T05:36:01.556Z,4.47
2018-05-24T05:38:31.439Z,6.40
2018-05-24T05:41:01.784Z,10.18
2018-05-24T05:43:30.885Z,5.65
2018-05-24T05:46:02.470Z,5.40
2018-05-24T05:48:33.822Z,5.22
2018-05-24T05:51:05.773Z,4.55
2018-05-24T05:53:35.771Z,3.75
2018-05-24T05:56:07.152Z,4.95
2018-05-24T05:58:38.623Z,5.25
2018-05-24T06:01:09.968Z,7.00
2018-05-24T06:03:41.346Z,4.35
2018-05-24T06:06:12.038Z,5.22
2018-05-24T06:08:42.787Z,4.90
2018-05-24T06:11:14.230Z,5.93
2018-05-24T06:13:44.928Z,4.60
2018-05-24T06:16:14.725Z,4.80
2018-05-24T06:18:46.529Z,4.12
2018-05-24T06:21:18.152Z,7.10
2018-05-24T06:23:47.674Z,6.07
2018-05-24T06:26:19.050Z,5.72
2018-05-24T06:28:49.106Z,4.57
2018-05-24T06:31:20.734Z,5.12
2018-05-24T06:33:51.145Z,4.30
2018-05-24T06:36:22.626Z,4.12
2018-05-24T06:38:53.863Z,7.57
2018-05-24T06:41:23.797Z,5.68
2018-05-24T06:43:55.211Z,5.45
2018-05-24T06:46:25.512Z,4.60
2018-05-24T06:48:55.889Z,5.93
2018-05-24T06:51:26.456Z,7.22
2018-05-24T06:53:56.218Z,6.22
2018-05-24T06:56:28.125Z,4.25
2018-05-24T06:58:59.540Z,6.82
2018-05-24T07:01:29.425Z,5.85
2018-05-24T07:04:00.758Z,9.02
2018-05-24T07:06:32.139Z,5.50
2018-05-24T07:09:03.509Z,8.07
2018-05-24T07:11:34.774Z,5.20
2018-05-24T07:14:05.268Z,6.10
2018-05-24T07:16:35.526Z,7.10
2018-05-24T07:19:05.441Z,4.68
2018-05-24T07:21:35.307Z,6.47
2018-05-24T07:24:05.177Z,11.65
2018-05-24T07:26:34.367Z,7.28
2018-05-24T07:29:06.067Z,8.23
2018-05-24T07:31:37.447Z,5.50
2018-05-24T07:34:07.361Z,6.15
2018-05-24T07:36:37.089Z,7.40
2018-05-24T07:39:09.439Z,6.03
2018-05-24T07:41:40.748Z,7.62
2018-05-24T07:44:10.753Z,11.23
2018-05-24T07:46:41.875Z,7.93
2018-05-24T07:49:11.196Z,10.18
2018-05-24T07:51:42.146Z,7.65
2018-05-24T07:54:13.279Z,11.38
2018-05-24T07:56:45.143Z,7.03
2018-05-24T07:59:15.182Z,8.20
2018-05-24T08:01:46.518Z,9.27
2018-05-24T08:04:15.958Z,12.25
2018-05-24T08:06:47.116Z,12.63
2018-05-24T08:09:17.130Z,10.18
2018-05-24T08:11:46.842Z,10.27
2018-05-24T08:14:16.856Z,11.07
2018-05-24T08:16:47.915Z,8.82
2018-05-24T08:19:19.207Z,7.37
2018-05-24T08:21:50.741Z,9.05
2018-05-24T08:24:22.204Z,9.93
2018-05-24T08:26:53.601Z,6.78
2018-05-24T08:29:24.135Z,6.78
2018-05-24T08:31:56.214Z,7.82
2018-05-24T08:34:27.615Z,15.30
2018-05-24T08:36:57.542Z,8.30
2018-05-24T08:39:28.906Z,8.27
2018-05-24T08:42:00.985Z,6.72
2018-05-24T08:44:30.902Z,6.57
2018-05-24T08:47:02.597Z,8.05
2018-05-24T08:49:33.262Z,6.75
2018-05-24T08:52:03.485Z,9.32
2018-05-24T08:54:34.733Z,6.82
2018-05-24T08:57:04.576Z,5.75
2018-05-24T08:59:34.538Z,7.47
2018-05-24T09:02:05.955Z,6.68
2018-05-24T09:04:37.531Z,10.68
2018-05-24T09:07:08.476Z,10.40
2018-05-24T09:09:40.739Z,8.57
2018-05-24T09:12:13.085Z,9.15
2018-05-24T09:14:43.015Z,9.05
2018-05-24T09:17:12.929Z,14.55
2018-05-24T09:19:44.084Z,12.15
2018-05-24T09:22:15.815Z,12.18
2018-05-24T09:24:45.975Z,12.30
2018-05-24T09:27:17.276Z,13.40
2018-05-24T09:29:49.031Z,15.00
2018-05-24T09:32:19.092Z,12.95
2018-05-24T09:34:51.042Z,11.90
2018-05-24T09:37:22.409Z,11.25
2018-05-24T09:39:53.160Z,13.47
2018-05-24T09:42:23.091Z,14.18
2018-05-24T09:44:54.554Z,14.07
2018-05-24T09:47:26.399Z,12.23
2018-05-24T09:49:58.051Z,11.52
2018-05-24T09:52:29.965Z,15.60
2018-05-24T09:55:01.336Z,12.93
2018-05-24T09:57:32.635Z,10.57
2018-05-24T10:00:04.214Z,18.25
2018-05-24T10:02:35.087Z,11.95
2018-05-24T10:05:06.679Z,11.75
2018-05-24T10:07:38.083Z,11.88
2018-05-24T10:10:08.031Z,11.70
2018-05-24T10:12:38.007Z,11.10
2018-05-24T10:15:08.214Z,12.90
2018-05-24T10:17:37.447Z,13.73
2018-05-24T10:20:08.685Z,14.87
2018-05-24T10:22:41.572Z,12.85
2018-05-24T10:25:11.490Z,11.77
2018-05-24T10:27:43.111Z,15.80
2018-05-24T10:30:13.995Z,11.30
2018-05-24T10:32:44.118Z,11.57
2018-05-24T10:35:14.713Z,10.20
2018-05-24T10:37:46.513Z,9.82
2018-05-24T10:40:18.038Z,11.00
2018-05-24T10:42:48.453Z,9.02
2018-05-24T10:45:18.948Z,10.57
2018-05-24T10:47:48.814Z,14.20
2018-05-24T10:50:18.526Z,8.98
2018-05-24T10:52:51.104Z,12.68
2018-05-24T10:55:21.634Z,9.48
2018-05-24T10:57:53.549Z,11.00
2018-05-24T11:00:25.039Z,15.27
2018-05-24T11:02:55.515Z,12.18
2018-05-24T11:05:25.180Z,15.48
2018-05-24T11:07:57.059Z,13.82
2018-05-24T11:10:27.215Z,13.00
2018-05-24T11:12:57.182Z,11.50
2018-05-24T11:15:30.518Z,13.55
2018-05-24T11:18:02.850Z,13.60
2018-05-24T11:20:33.532Z,13.43
2018-05-24T11:23:05.098Z,13.25
2018-05-24T11:25:36.660Z,12.80
2018-05-24T11:28:08.970Z,15.48
2018-05-24T11:30:42.649Z,13.70
2018-05-24T11:33:12.642Z,14.77
2018-05-24T11:35:43.579Z,13.40
2018-05-24T11:38:13.614Z,14.38
2018-05-24T11:40:44.950Z,14.43
2018-05-24T11:43:16.558Z,17.70
2018-05-24T11:45:47.546Z,13.00
2018-05-24T11:48:18.900Z,11.30
2018-05-24T11:50:48.746Z,11.60
2018-05-24T11:53:20.692Z,11.73
2018-05-24T11:55:52.414Z,11.98
2018-05-24T11:58:23.755Z,11.82
2018-05-24T12:00:55.887Z,13.18
2018-05-24T12:03:27.418Z,13.43
2018-05-24T12:05:58.805Z,14.65
2018-05-24T12:08:30.912Z,13.98
2018-05-24T12:11:03.728Z,15.10
2018-05-24T12:13:35.075Z,15.75
2018-05-24T12:16:06.274Z,16.00
2018-05-24T12:18:36.500Z,14.85
2018-05-24T12:21:10.313Z,16.00
2018-05-24T12:23:41.554Z,15.65
2018-05-24T12:26:13.513Z,16.42
2018-05-24T12:28:44.469Z,17.12
2018-05-24T12:31:14.441Z,16.92
2018-05-24T12:33:45.661Z,16.35
2018-05-24T12:36:15.737Z,16.48
2018-05-24T12:38:45.950Z,15.55
2018-05-24T12:41:17.216Z,18.20
2018-05-24T12:43:47.635Z,17.85
2018-05-24T12:46:19.360Z,16.33
2018-05-24T12:48:48.698Z,17.48
2018-05-24T12:51:20.091Z,15.68
2018-05-24T12:53:50.172Z,20.92
2018-05-24T12:56:21.741Z,16.73
2018-05-24T12:58:51.121Z,16.70
2018-05-24T13:01:22.689Z,16.45
2018-05-24T13:03:53.313Z,21.35
2018-05-24T13:06:23.209Z,18.50
2018-05-24T13:08:53.158Z,18.15
2018-05-24T13:11:24.604Z,18.83
2018-05-24T13:13:56.202Z,18.77
2018-05-24T13:16:26.785Z,22.17
2018-05-24T13:18:58.150Z,22.60
2018-05-24T13:21:29.681Z,22.40
2018-05-24T13:24:01.161Z,18.83
2018-05-24T13:26:33.127Z,22.23
2018-05-24T13:29:04.531Z,19.25
2018-05-24T13:31:35.559Z,19.87
2018-05-24T13:34:05.413Z,20.50
2018-05-24T13:36:36.926Z,21.17
2018-05-24T13:39:08.235Z,22.67
2018-05-24T13:41:40.558Z,22.25
2018-05-24T13:44:12.067Z,23.10
2018-05-24T13:46:41.782Z,23.48
2018-05-24T13:49:11.735Z,21.67
2018-05-24T13:51:42.453Z,23.30
2018-05-24T13:54:12.421Z,20.12
2018-05-24T13:56:43.795Z,21.95
2018-05-24T13:59:14.000Z,21.67
2018-05-24T14:01:44.297Z,19.40
2018-05-24T14:04:16.151Z,19.23
2018-05-24T14:06:46.071Z,19.23
2018-05-24T14:09:18.030Z,17.23
2018-05-24T14:11:49.188Z,17.02
2018-05-24T14:14:19.430Z,18.25
2018-05-24T14:16:49.129Z,17.20
2018-05-24T14:19:19.062Z,17.40
2018-05-24T14:21:49.544Z,18.92
2018-05-24T14:24:19.410Z,22.52
2018-05-24T14:26:50.025Z,18.83
2018-05-24T14:29:19.753Z,19.10
2018-05-24T14:31:51.613Z,19.40
2018-05-24T14:34:22.889Z,19.58
2018-05-24T14:36:54.730Z,19.20
2018-05-24T14:39:25.804Z,17.58
2018-05-24T14:41:56.469Z,18.70
2018-05-24T14:44:25.844Z,19.42
2018-05-24T14:46:57.640Z,21.87
2018-05-24T14:49:27.433Z,21.27
2018-05-24T14:51:58.830Z,19.33
2018-05-24T14:54:30.139Z,19.65
2018-05-24T14:57:01.266Z,19.58
2018-05-24T14:59:31.369Z,18.12
2018-05-24T15:02:02.661Z,16.95
2018-05-24T15:04:32.580Z,16.37
2018-05-24T15:07:04.263Z,17.98
2018-05-24T15:09:35.616Z,16.05
2018-05-24T15:12:07.177Z,16.95
2018-05-24T15:14:38.789Z,14.87
2018-05-24T15:17:10.230Z,16.45
2018-05-24T15:19:42.510Z,15.40
2018-05-24T15:22:14.275Z,16.37
2018-05-24T15:24:43.427Z,15.10
2018-05-24T15:27:13.631Z,14.02
2018-05-24T15:29:45.084Z,11.77
2018-05-24T15:32:17.116Z,12.05
2018-05-24T15:34:46.974Z,9.38
2018-05-24T15:37:16.480Z,10.18
2018-05-24T15:39:47.197Z,9.95
2018-05-24T15:42:17.732Z,10.95
2018-05-24T15:44:49.108Z,10.55
2018-05-24T15:47:19.946Z,11.32
2018-05-24T15:49:51.413Z,10.38
2018-05-24T15:52:22.836Z,13.27
2018-05-24T15:54:54.488Z,13.68
2018-05-24T15:57:24.306Z,12.43
2018-05-24T15:59:55.818Z,13.40
2018-05-24T16:02:25.576Z,14.68
2018-05-24T16:04:55.515Z,14.48
2018-05-24T16:07:32.425Z,12.18
2018-05-24T16:10:03.896Z,12.95
2018-05-24T16:12:35.173Z,15.45
2018-05-24T16:15:05.353Z,13.65
2018-05-24T16:17:37.214Z,14.43
2018-05-24T16:20:07.171Z,14.10
2018-05-24T16:22:37.166Z,15.10
2018-05-24T16:25:07.205Z,15.65
2018-05-24T16:27:38.620Z,14.15
2018-05-24T16:30:09.127Z,14.77
2018-05-24T16:32:40.497Z,15.20
2018-05-24T16:35:11.123Z,16.67
2018-05-24T16:37:42.933Z,15.15
2018-05-24T16:40:12.990Z,13.98
2018-05-24T16:42:44.420Z,15.48
2018-05-24T16:45:14.334Z,15.98
2018-05-24T16:47:45.772Z,14.98
2018-05-24T16:50:18.522Z,22.40
2018-05-24T16:52:49.897Z,14.55
2018-05-24T16:55:19.857Z,15.02
2018-05-24T16:57:51.404Z,16.17
2018-05-24T17:00:22.397Z,15.88
2018-05-24T17:02:53.816Z,14.60
2018-05-24T17:05:24.657Z,15.43
2018-05-24T17:07:54.558Z,15.85
2018-05-24T17:10:26.739Z,17.30
2018-05-24T17:12:57.449Z,17.02
2018-05-24T17:15:28.856Z,17.45
2018-05-24T17:17:58.306Z,19.37
2018-05-24T17:20:29.759Z,19.10
2018-05-24T17:23:01.120Z,16.45
2018-05-24T17:25:31.008Z,16.27
2018-05-24T17:28:00.193Z,16.20
2018-05-24T17:30:29.372Z,17.05
2018-05-24T17:33:00.886Z,18.15
2018-05-24T17:35:30.906Z,16.87
2018-05-24T17:38:01.239Z,17.87
2018-05-24T17:40:32.630Z,17.20
2018-05-24T17:43:04.237Z,18.40
2018-05-24T17:45:33.804Z,18.45
2018-05-24T17:48:03.739Z,18.65
2018-05-24T17:50:33.728Z,17.30
2018-05-24T17:53:05.175Z,17.17
2018-05-24T17:55:36.608Z,18.70
2018-05-24T17:58:07.919Z,18.65
2018-05-24T18:00:39.479Z,18.35
2018-05-24T18:03:09.625Z,17.15
2018-05-24T18:05:40.404Z,21.27
2018-05-24T18:08:10.313Z,24.85
2018-05-24T18:10:40.334Z,16.20
2018-05-24T18:13:10.257Z,16.98
2018-05-24T18:15:40.650Z,17.40
2018-05-24T18:18:11.941Z,20.08
2018-05-24T18:20:42.107Z,19.08
2018-05-24T18:23:13.595Z,18.40
2018-05-24T18:25:45.074Z,18.65
2018-05-24T18:28:16.367Z,19.83
2018-05-24T18:30:47.753Z,20.80
2018-05-24T18:33:17.721Z,20.62
2018-05-24T18:35:49.451Z,21.08
2018-05-24T18:38:21.567Z,20.33
2018-05-24T18:40:52.327Z,21.45
2018-05-24T18:43:22.021Z,20.62
2018-05-24T18:45:51.912Z,19.95
2018-05-24T18:48:21.929Z,22.52
2018-05-24T18:50:51.994Z,21.87
2018-05-24T18:53:23.088Z,22.52
2018-05-24T18:55:53.086Z,21.42
2018-05-24T18:58:23.795Z,22.23
2018-05-24T19:00:55.176Z,21.60
2018-05-24T19:03:25.585Z,21.20
2018-05-24T19:05:57.400Z,22.13
2018-05-24T19:08:27.408Z,21.08
2018-05-24T19:10:58.706Z,22.25
2018-05-24T19:13:28.811Z,23.62
2018-05-24T19:16:00.820Z,22.23
2018-05-24T19:18:30.740Z,21.85
2018-05-24T19:21:01.867Z,22.33
2018-05-24T19:23:33.847Z,23.05
2018-05-24T19:26:03.756Z,22.17
2018-05-24T19:28:35.167Z,21.10
2018-05-24T19:31:05.165Z,22.00
2018-05-24T19:33:35.775Z,23.85
2018-05-24T19:36:05.437Z,22.02
2018-05-24T19:38:35.244Z,22.40
2018-05-24T19:41:04.982Z,23.70
2018-05-24T19:43:36.373Z,21.98
2018-05-24T19:46:08.384Z,22.55
2018-05-24T19:48:39.655Z,23.08
2018-05-24T19:51:09.905Z,23.45
2018-05-24T19:53:39.792Z,23.30
2018-05-24T19:56:10.397Z,24.10
2018-05-24T19:58:42.126Z,24.33
2018-05-24T20:01:13.490Z,22.15
2018-05-24T20:03:45.084Z,22.77
2018-05-24T20:06:15.332Z,23.75
2018-05-24T20:08:45.314Z,22.58
2018-05-24T20:11:16.681Z,22.40
2018-05-24T20:13:47.209Z,24.67
2018-05-24T20:16:20.056Z,25.45
2018-05-24T20:18:53.453Z,25.92
2018-05-24T20:21:24.845Z,25.42
2018-05-24T20:23:57.678Z,25.65
2018-05-24T20:26:32.087Z,25.60
2018-05-24T20:29:03.369Z,24.80
2018-05-24T20:31:38.087Z,25.48
2018-05-24T20:34:11.828Z,22.70
2018-05-24T20:36:45.047Z,22.48
2018-05-24T20:39:16.629Z,23.58
2018-05-24T20:41:49.507Z,23.20
2018-05-24T20:44:22.380Z,24.73
2018-05-24T20:46:53.860Z,24.30
2018-05-24T20:49:26.038Z,28.20
2018-05-24T20:51:57.503Z,22.98
2018-05-24T20:54:30.738Z,26.40
2018-05-24T20:57:03.994Z,26.15
2018-05-24T20:59:37.718Z,27.65
2018-05-24T21:02:09.625Z,28.17
2018-05-24T21:04:41.711Z,29.25
2018-05-24T21:07:15.643Z,27.50
2018-05-24T21:09:47.058Z,26.12
2018-05-24T21:12:18.580Z,28.20
2018-05-24T21:14:51.312Z,27.05
2018-05-24T21:17:24.339Z,29.40
2018-05-24T21:19:58.299Z,28.70
2018-05-24T21:22:31.225Z,30.17
2018-05-24T21:25:04.056Z,30.00
2018-05-24T21:27:36.305Z,31.17
2018-05-24T21:30:08.204Z,27.83
2018-05-24T21:32:41.517Z,27.62
2018-05-24T21:35:12.875Z,29.87
2018-05-24T21:37:47.179Z,31.35
2018-05-24T21:40:18.332Z,29.52
2018-05-24T21:42:49.689Z,30.37
2018-05-24T21:45:19.641Z,31.15
2018-05-24T21:47:51.052Z,31.25
2018-05-24T21:50:23.963Z,31.30
2018-05-24T21:52:55.270Z,31.12
2018-05-24T21:55:29.650Z,30.58
2018-05-24T21:58:02.204Z,30.88
2018-05-24T22:00:33.604Z,33.53
2018-05-24T22:03:06.559Z,31.15
2018-05-24T22:05:38.112Z,33.20
2018-05-24T22:08:12.544Z,32.17
2018-05-24T22:10:44.530Z,32.50
2018-05-24T22:13:16.106Z,32.00
2018-05-24T22:15:45.397Z,33.33
2018-05-24T22:18:17.188Z,33.72
2018-05-24T22:20:48.841Z,34.03
2018-05-24T22:23:23.198Z,35.85
2018-05-24T22:25:57.475Z,37.47
2018-05-24T22:28:28.880Z,39.17
2018-05-24T22:31:01.694Z,34.03
2018-05-24T22:33:34.048Z,38.78
2018-05-24T22:36:05.457Z,37.88
2018-05-24T22:38:36.810Z,36.38
2018-05-24T22:41:09.741Z,39.35
2018-05-24T22:43:41.599Z,35.22
2018-05-24T22:46:16.123Z,36.63
2018-05-24T22:48:50.476Z,35.20
2018-05-24T22:51:24.127Z,33.85
2018-05-24T22:53:57.062Z,33.85
2018-05-24T22:56:31.390Z,33.42
2018-05-24T22:59:03.513Z,35.35
2018-05-24T23:01:37.261Z,34.85
2018-05-24T23:04:09.219Z,33.75
2018-05-24T23:06:40.780Z,32.67
2018-05-24T23:09:12.725Z,34.42
2018-05-24T23:11:47.061Z,35.97
2018-05-24T23:14:18.441Z,35.05
2018-05-24T23:16:49.841Z,36.13
2018-05-24T23:19:19.838Z,35.42
2018-05-24T23:21:51.002Z,38.10
2018-05-24T23:24:25.337Z,36.55
2018-05-24T23:26:58.179Z,34.40
2018-05-24T23:29:30.575Z,35.47
2018-05-24T23:32:03.382Z,36.25
2018-05-24T23:34:34.942Z,35.50
2018-05-24T23:37:05.918Z,34.92
2018-05-24T23:39:36.268Z,38.00
2018-05-24T23:42:08.537Z,36.95
2018-05-24T23:44:40.762Z,37.08
2018-05-24T23:47:13.504Z,40.28
2018-05-24T23:49:44.927Z,39.15
2018-05-24T23:52:17.883Z,40.08
2018-05-24T23:54:48.274Z,39.65
2018-05-24T23:57:19.876Z,42.53
2018-05-24T23:59:54.333Z,39.03
